Time;durP1;ratioP1;P1;durP2;ratioP2;P2;SDS_P1;SDS_P2;PMS_P1;PMS_P2;Temp;Humidity;BMP_temperature;BMP_pressure;BME280_temperature;BME280_humidity;BME280_pressure;Samples;Min_cycle;Max_cycle;Signal;HPM_P1;HPM_P2
2021/04/26 00:00:29;;;;;;;9.25;3.08;;;0.30;99.90;;;;;;5081625;28;20050;-59
2021/04/26 00:02:56;;;;;;;4.95;2.95;;;0.30;99.90;;;;;;5082788;28;20040;-52
2021/04/26 00:05:22;;;;;;;5.93;2.80;;;0.40;99.90;;;;;;5082771;28;20047;-55
2021/04/26 00:07:48;;;;;;;11.50;3.47;;;0.30;99.90;;;;;;5082562;28;20094;-53
2021/04/26 00:10:15;;;;;;;6.35;2.90;;;0.30;99.90;;;;;;5081654;28;20044;-59
2021/04/26 00:12:41;;;;;;;9.13;3.30;;;0.30;99.90;;;;;;5081771;28;20081;-60
2021/04/26 00:15:10;;;;;;;8.30;3.22;;;0.30;99.90;;;;;;5073239;28;20049;-58
2021/04/26 00:17:35;;;;;;;9.07;3.20;;;0.20;99.90;;;;;;5068246;28;20052;-55
2021/04/26 00:20:04;;;;;;;7.80;3.45;;;0.30;99.90;;;;;;5068848;28;20040;-54
2021/04/26 00:22:31;;;;;;;7.38;2.80;;;0.20;99.90;;;;;;5068532;28;20058;-58
2021/04/26 00:24:57;;;;;;;5.35;2.92;;;0.30;99.90;;;;;;5068250;28;20692;-62
2021/04/26 00:27:22;;;;;;;7.78;3.35;;;0.20;99.90;;;;;;5064988;28;20079;-58
2021/04/26 00:29:48;;;;;;;5.68;2.90;;;0.30;99.90;;;;;;5068311;28;20041;-59
2021/04/26 00:32:13;;;;;;;7.72;3.13;;;0.20;99.90;;;;;;5068008;28;20045;-57
2021/04/26 00:34:39;;;;;;;3.90;2.55;;;0.10;99.90;;;;;;5066840;28;20040;-57
2021/04/26 00:37:04;;;;;;;4.97;2.88;;;0.00;99.90;;;;;;5068603;28;20124;-61
2021/04/26 00:39:30;;;;;;;7.53;3.40;;;0.00;99.90;;;;;;5069539;28;20068;-57
2021/04/26 00:41:55;;;;;;;10.13;4.13;;;0.00;99.90;;;;;;5068006;28;20060;-59
2021/04/26 00:44:21;;;;;;;5.63;2.92;;;0.00;99.90;;;;;;5061186;28;20057;-57
2021/04/26 00:46:48;;;;;;;7.75;3.50;;;0.00;99.90;;;;;;5068038;28;20517;-56
2021/04/26 00:49:14;;;;;;;4.80;2.60;;;-0.10;99.90;;;;;;5068135;28;20071;-60
2021/04/26 00:51:40;;;;;;;10.98;3.13;;;-0.10;99.90;;;;;;5066697;28;20207;-57
2021/04/26 00:54:05;;;;;;;12.77;3.13;;;-0.10;99.90;;;;;;5067820;28;20576;-57
2021/04/26 00:56:31;;;;;;;7.47;3.33;;;-0.10;99.90;;;;;;5071046;28;20054;-57
2021/04/26 00:58:57;;;;;;;6.95;3.20;;;-0.20;99.90;;;;;;5061502;28;20407;-60
2021/04/26 01:01:22;;;;;;;7.82;2.85;;;-0.20;99.90;;;;;;5065438;28;20036;-60
2021/04/26 01:03:48;;;;;;;5.97;3.38;;;-0.20;99.90;;;;;;5067669;28;20102;-58
2021/04/26 01:06:14;;;;;;;10.00;3.20;;;-0.20;99.90;;;;;;5067736;28;20098;-56
2021/04/26 01:08:41;;;;;;;8.50;3.15;;;-0.20;99.90;;;;;;5068146;28;20103;-58
2021/04/26 01:11:07;;;;;;;8.35;3.03;;;-0.20;99.90;;;;;;5067610;28;20045;-61
2021/04/26 01:13:43;;;;;;;7.18;2.78;;;-0.30;99.90;;;;;;5068178;28;20044;-58
2021/04/26 01:16:29;;;;;;;5.15;3.03;;;-0.20;99.90;;;;;;5067339;28;20048;-61
2021/04/26 01:19:21;;;;;;;5.95;3.25;;;-0.30;99.90;;;;;;5067839;28;20068;-59
2021/04/26 01:21:52;;;;;;;7.38;3.30;;;-0.30;99.90;;;;;;5051008;28;20691;-58
2021/04/26 01:24:23;;;;;;;6.43;3.17;;;-0.30;99.90;;;;;;5067546;28;20476;-59
2021/04/26 01:26:57;;;;;;;8.30;3.28;;;-0.40;99.90;;;;;;5066433;28;20552;-60
2021/04/26 01:29:58;;;;;;;11.70;3.08;;;-0.40;99.90;;;;;;5067139;28;20041;-59
2021/04/26 01:32:32;;;;;;;7.03;3.22;;;-0.40;99.90;;;;;;5066837;28;20041;-55
2021/04/26 01:34:59;;;;;;;7.97;3.33;;;-0.40;99.90;;;;;;5067490;28;20448;-57
2021/04/26 01:37:27;;;;;;;9.55;3.67;;;-0.40;99.90;;;;;;5067463;28;20040;-58
2021/04/26 01:39:54;;;;;;;6.68;3.15;;;-0.40;99.90;;;;;;5067343;28;20105;-61
2021/04/26 01:42:21;;;;;;;13.15;3.28;;;-0.40;99.90;;;;;;5067185;28;20127;-53
2021/04/26 01:44:47;;;;;;;6.55;3.33;;;-0.40;99.90;;;;;;5066810;28;20040;-60
2021/04/26 01:47:14;;;;;;;4.75;2.85;;;-0.40;99.90;;;;;;5066242;28;20048;-61
2021/04/26 01:49:41;;;;;;;5.85;2.90;;;-0.50;99.90;;;;;;5071973;28;20628;-56
2021/04/26 01:52:08;;;;;;;9.18;3.55;;;-0.50;99.90;;;;;;5086554;28;20051;-58
2021/04/26 01:54:35;;;;;;;5.53;2.75;;;-0.50;99.90;;;;;;5087001;28;20071;-60
2021/04/26 01:57:02;;;;;;;9.80;3.13;;;-0.50;99.90;;;;;;5075824;28;20407;-57
2021/04/26 01:59:29;;;;;;;5.72;2.92;;;-0.50;99.90;;;;;;5066958;28;20048;-55
2021/04/26 02:01:56;;;;;;;17.60;3.47;;;-0.50;99.90;;;;;;5065118;28;20036;-58
2021/04/26 02:04:25;;;;;;;9.88;3.03;;;-0.50;99.90;;;;;;5066909;28;20139;-60
2021/04/26 02:06:51;;;;;;;5.97;3.33;;;-0.50;99.90;;;;;;5066816;28;20146;-53
2021/04/26 02:09:17;;;;;;;5.18;2.97;;;-0.50;99.90;;;;;;5065377;28;20041;-57
2021/04/26 02:11:44;;;;;;;3.63;2.67;;;-0.60;99.90;;;;;;5065077;28;20047;-57
2021/04/26 02:14:12;;;;;;;7.75;3.90;;;-0.60;99.90;;;;;;5066506;28;20048;-54
2021/04/26 02:16:40;;;;;;;7.45;3.20;;;-0.70;99.90;;;;;;5065267;28;20044;-56
2021/04/26 02:19:07;;;;;;;12.38;3.13;;;-0.60;99.90;;;;;;5066395;28;20066;-56
2021/04/26 02:21:33;;;;;;;4.88;2.45;;;-0.70;99.90;;;;;;5065850;28;20044;-57
2021/04/26 02:23:59;;;;;;;5.88;3.20;;;-0.60;99.90;;;;;;5066497;28;20050;-57
2021/04/26 02:26:24;;;;;;;6.63;3.38;;;-0.70;99.90;;;;;;5065393;28;20559;-61
2021/04/26 02:28:50;;;;;;;8.00;3.10;;;-0.80;99.90;;;;;;5066218;28;20432;-59
2021/04/26 02:31:20;;;;;;;8.02;3.53;;;-0.80;99.90;;;;;;5065783;28;20741;-57
2021/04/26 02:33:56;;;;;;;9.52;2.88;;;-0.90;99.90;;;;;;5066347;28;20099;-55
2021/04/26 02:36:30;;;;;;;7.85;2.70;;;-0.90;99.90;;;;;;5064438;28;20046;-60
2021/04/26 02:38:58;;;;;;;8.40;4.05;;;-0.90;99.90;;;;;;5066197;28;20115;-50
2021/04/26 02:41:27;;;;;;;7.93;2.75;;;-0.90;99.90;;;;;;5060844;28;20052;-60
2021/04/26 02:44:00;;;;;;;7.22;2.70;;;-0.90;99.90;;;;;;5065501;28;20056;-60
2021/04/26 02:46:28;;;;;;;5.95;2.50;;;-1.00;99.90;;;;;;5064820;28;20123;-58
2021/04/26 02:48:56;;;;;;;11.57;2.85;;;-1.00;99.90;;;;;;5065281;28;20122;-56
2021/04/26 02:51:22;;;;;;;7.05;2.72;;;-0.90;99.90;;;;;;5062973;28;20056;-58
2021/04/26 02:53:50;;;;;;;3.70;2.58;;;-1.00;99.90;;;;;;5065101;28;20052;-55
2021/04/26 02:56:17;;;;;;;6.03;2.80;;;-1.00;99.90;;;;;;5064711;28;20044;-52
2021/04/26 02:58:46;;;;;;;4.72;2.70;;;-1.00;99.90;;;;;;5063890;28;20476;-57
2021/04/26 03:01:13;;;;;;;6.28;3.20;;;-1.00;99.90;;;;;;5064846;28;20032;-61
2021/04/26 03:03:42;;;;;;;8.48;3.15;;;-1.10;99.90;;;;;;5065413;28;20048;-58
2021/04/26 03:06:09;;;;;;;6.05;2.78;;;-1.10;99.90;;;;;;5065348;28;20099;-60
2021/04/26 03:08:35;;;;;;;7.82;2.70;;;-1.10;99.90;;;;;;5065923;28;20040;-59
2021/04/26 03:11:05;;;;;;;11.35;3.33;;;-1.10;99.90;;;;;;5065600;28;20060;-59
2021/04/26 03:13:31;;;;;;;6.78;2.63;;;-1.10;99.90;;;;;;5065670;28;20051;-53
2021/04/26 03:15:58;;;;;;;7.30;2.65;;;-1.10;99.90;;;;;;5064853;28;20037;-61
2021/04/26 03:18:26;;;;;;;6.38;2.70;;;-1.00;99.90;;;;;;5065065;28;20155;-59
2021/04/26 03:20:52;;;;;;;6.18;2.80;;;-1.10;99.90;;;;;;5065709;28;20032;-58
2021/04/26 03:23:24;;;;;;;8.32;3.28;;;-1.10;99.90;;;;;;5065380;28;20036;-57
2021/04/26 03:25:55;;;;;;;6.97;3.35;;;-1.10;99.90;;;;;;5065294;28;20675;-59
2021/04/26 03:28:22;;;;;;;6.53;2.90;;;-1.20;99.90;;;;;;5063077;28;20029;-54
2021/04/26 03:30:48;;;;;;;7.22;2.90;;;-1.20;99.90;;;;;;5063548;28;20578;-60
2021/04/26 03:33:14;;;;;;;8.05;3.00;;;-1.20;99.90;;;;;;5064898;28;20049;-59
2021/04/26 03:35:41;;;;;;;8.38;2.58;;;-1.20;99.90;;;;;;5084493;28;20115;-60
2021/04/26 03:38:07;;;;;;;4.82;2.60;;;-1.30;99.90;;;;;;5086426;28;20044;-59
2021/04/26 03:40:33;;;;;;;14.68;3.60;;;-1.30;99.90;;;;;;5086093;28;20062;-58
2021/04/26 03:43:00;;;;;;;8.10;3.83;;;-1.30;99.90;;;;;;5071345;28;20060;-60
2021/04/26 03:45:27;;;;;;;6.95;3.10;;;-1.30;99.90;;;;;;5064301;28;20424;-59
2021/04/26 03:47:54;;;;;;;5.07;2.83;;;-1.30;99.90;;;;;;5065425;28;20710;-60
2021/04/26 03:50:22;;;;;;;12.10;3.35;;;-1.30;99.90;;;;;;5067952;28;20076;-59
2021/04/26 03:52:48;;;;;;;6.70;2.85;;;-1.30;99.90;;;;;;5069292;28;20048;-60
2021/04/26 03:55:19;;;;;;;4.63;2.22;;;-1.30;99.90;;;;;;5069456;28;20484;-60
2021/04/26 03:57:45;;;;;;;5.57;2.50;;;-1.20;99.90;;;;;;5065558;28;20045;-61
2021/04/26 04:00:13;;;;;;;8.90;3.05;;;-1.20;99.90;;;;;;5069264;28;20108;-59
2021/04/26 04:02:38;;;;;;;8.90;2.85;;;-1.20;99.90;;;;;;5068608;28;20043;-59
2021/04/26 04:05:06;;;;;;;7.03;2.67;;;-1.20;99.90;;;;;;5068658;28;20032;-59
2021/04/26 04:07:32;;;;;;;5.75;2.58;;;-1.20;99.90;;;;;;5069527;28;20051;-60
2021/04/26 04:09:58;;;;;;;8.35;2.85;;;-1.20;99.90;;;;;;5069158;28;20045;-60
2021/04/26 04:12:23;;;;;;;3.53;2.08;;;-1.20;99.90;;;;;;5068885;28;20075;-63
2021/04/26 04:14:50;;;;;;;3.50;1.90;;;-1.10;99.90;;;;;;5069825;28;20048;-59
2021/04/26 04:17:16;;;;;;;8.02;3.97;;;-1.10;99.90;;;;;;5068656;28;20036;-59
2021/04/26 04:19:42;;;;;;;4.40;2.70;;;-1.10;99.90;;;;;;5069189;28;20039;-60
2021/04/26 04:22:07;;;;;;;6.93;2.75;;;-1.10;99.90;;;;;;5068538;28;20429;-61
2021/04/26 04:24:33;;;;;;;9.52;2.53;;;-1.10;99.90;;;;;;5069062;28;20125;-58
2021/04/26 04:26:59;;;;;;;7.93;2.70;;;-1.10;99.90;;;;;;5067782;28;20043;-58
2021/04/26 04:29:24;;;;;;;5.78;2.40;;;-1.10;99.90;;;;;;5068166;28;20047;-61
2021/04/26 04:31:51;;;;;;;10.75;2.90;;;-1.00;99.90;;;;;;5067513;28;20041;-60
2021/04/26 04:34:16;;;;;;;6.05;2.40;;;-1.00;99.90;;;;;;5068250;28;20051;-60
2021/04/26 04:36:42;;;;;;;6.30;2.70;;;-0.90;99.90;;;;;;5068099;28;20599;-60
2021/04/26 04:39:07;;;;;;;6.50;2.70;;;-0.90;99.90;;;;;;5068909;28;20044;-52
2021/04/26 04:41:33;;;;;;;7.10;2.58;;;-0.70;99.90;;;;;;5073703;28;20121;-61
2021/04/26 04:44:02;;;;;;;10.30;2.58;;;-0.40;99.90;;;;;;5077267;28;20078;-62
2021/04/26 04:46:29;;;;;;;8.98;2.53;;;0.20;99.90;;;;;;5076864;28;20117;-61
2021/04/26 04:48:55;;;;;;;6.07;1.95;;;1.20;99.90;;;;;;5072476;28;20028;-61
2021/04/26 04:51:21;;;;;;;8.73;2.20;;;2.40;98.50;;;;;;5067903;28;20043;-60
2021/04/26 04:53:47;;;;;;;7.47;2.10;;;3.20;96.00;;;;;;5068818;28;20040;-57
2021/04/26 04:56:14;;;;;;;;;;;4.20;94.20;;;;;;5068503;28;20119;-62
2021/04/26 04:58:41;;;;;;;4.95;1.90;;;5.20;91.20;;;;;;5067152;28;19981;-56
2021/04/26 05:01:06;;;;;;;3.75;2.08;;;6.00;89.40;;;;;;5066944;28;20033;-58
2021/04/26 05:03:33;;;;;;;;;;;6.70;86.30;;;;;;5057176;28;20531;-55
2021/04/26 05:05:58;;;;;;;5.35;1.98;;;7.10;80.00;;;;;;5065678;28;19922;-59
2021/04/26 05:08:24;;;;;;;;;;;7.30;79.70;;;;;;5071534;28;20127;-58
2021/04/26 05:10:49;;;;;;;7.13;2.08;;;7.90;77.90;;;;;;5087033;28;19919;-59
2021/04/26 05:13:15;;;;;;;;;;;8.20;77.50;;;;;;5088117;28;20048;-57
2021/04/26 05:15:41;;;;;;;10.13;2.03;;;8.40;74.50;;;;;;5088165;28;19969;-59
2021/04/26 05:18:07;;;;;;;;;;;8.10;75.10;;;;;;5087719;28;20492;-61
2021/04/26 05:20:34;;;;;;;5.18;1.70;;;7.50;76.30;;;;;;5087677;28;19916;-59
2021/04/26 05:22:59;;;;;;;4.88;1.90;;;7.40;78.40;;;;;;5068766;28;20047;-61
2021/04/26 05:25:25;;;;;;;;;;;7.40;77.60;;;;;;5068884;28;20048;-60
2021/04/26 05:27:51;;;;;;;7.53;1.92;;;7.00;81.00;;;;;;5068929;28;19924;-62
2021/04/26 05:30:16;;;;;;;;;;;8.50;78.60;;;;;;5067846;28;20048;-60
2021/04/26 05:32:42;;;;;;;4.25;1.50;;;9.70;73.60;;;;;;5066600;28;19917;-61
2021/04/26 05:35:08;;;;;;;;;;;10.00;70.00;;;;;;5066693;28;20040;-61
2021/04/26 05:37:33;;;;;;;3.10;1.58;;;9.50;70.80;;;;;;5066904;28;20015;-59
2021/04/26 05:39:59;;;;;;;;;;;9.70;72.00;;;;;;5064487;28;20073;-63
2021/04/26 05:42:25;;;;;;;3.30;1.15;;;10.00;66.60;;;;;;5066746;28;19920;-54
2021/04/26 05:44:50;;;;;;;;;;;10.90;60.90;;;;;;5066675;28;20075;-56
2021/04/26 05:47:16;;;;;;;4.43;1.10;;;11.40;58.90;;;;;;5065340;28;19928;-55
2021/04/26 05:49:41;;;;;;;;;;;10.80;60.20;;;;;;5068536;28;20040;-56
2021/04/26 05:52:07;;;;;;;2.80;1.70;;;10.60;56.20;;;;;;5065507;28;20448;-59
2021/04/26 05:54:33;;;;;;;;;;;10.80;61.40;;;;;;5066963;28;20044;-56
2021/04/26 05:56:58;;;;;;;3.65;1.50;;;10.20;56.40;;;;;;5069846;28;19970;-58
2021/04/26 05:59:24;;;;;;;;;;;9.60;62.30;;;;;;5067408;28;20036;-59
2021/04/26 06:01:50;;;;;;;3.05;1.42;;;9.10;63.20;;;;;;5044003;23;19924;-62
2021/04/26 06:04:15;;;;;;;;;;;8.60;63.90;;;;;;5031935;28;20049;-61
2021/04/26 06:06:41;;;;;;;3.00;1.13;;;8.60;61.00;;;;;;5032604;28;19995;-60
2021/04/26 06:09:06;;;;;;;;;;;9.80;59.00;;;;;;5047503;28;20099;-56
2021/04/26 06:11:32;;;;;;;5.18;1.52;;;10.60;54.40;;;;;;5045660;22;19921;-58
2021/04/26 06:13:58;;;;;;;;;;;11.60;54.00;;;;;;5057108;28;20128;-60
2021/04/26 06:16:23;;;;;;;1.50;0.90;;;12.20;50.50;;;;;;5053016;28;20373;-58
2021/04/26 06:18:49;;;;;;;;;;;11.80;50.00;;;;;;5045600;28;20043;-59
2021/04/26 06:21:14;;;;;;;1.60;0.80;;;10.70;55.20;;;;;;5044996;28;20558;-61
2021/04/26 06:23:41;;;;;;;;;;;10.40;55.10;;;;;;5045924;28;20431;-62
2021/04/26 06:26:07;;;;;;;2.45;1.10;;;12.00;53.90;;;;;;5027682;28;19920;-61
2021/04/26 06:28:32;;;;;;;;;;;13.50;47.90;;;;;;5047652;28;20037;-60
2021/04/26 06:30:58;;;;;;;4.25;0.73;;;14.90;43.60;;;;;;5045010;22;20361;-68
2021/04/26 06:33:23;;;;;;;8.82;6.35;;;16.10;40.20;;;;;;5048422;28;20043;-71
2021/04/26 06:35:51;;;;;;;5.32;2.20;;;16.00;39.60;;;;;;5066631;28;20039;-69
2021/04/26 06:46:42;;;;;;;2.38;0.85;;;15.50;37.60;;;;;;5025175;22;20056;-54
2021/04/26 06:49:08;;;;;;;4.93;0.90;;;14.30;38.90;;;;;;5051868;28;20037;-57
2021/04/26 06:51:34;;;;;;;7.00;4.15;;;13.50;42.40;;;;;;5043174;28;20048;-60
2021/04/26 06:53:59;;;;;;;2.67;1.40;;;14.50;43.80;;;;;;5044764;28;20033;-59
2021/04/26 06:56:25;;;;;;;1.75;0.70;;;14.60;39.70;;;;;;5032279;28;20090;-55
2021/04/26 06:58:50;;;;;;;1.27;0.88;;;15.00;38.80;;;;;;5024773;28;20025;-55
2021/04/26 07:01:16;;;;;;;3.70;3.03;;;14.70;38.20;;;;;;5024250;28;20090;-54
2021/04/26 07:03:41;;;;;;;1.95;0.90;;;13.90;39.10;;;;;;5025300;28;20045;-52
2021/04/26 07:06:07;;;;;;;5.43;1.98;;;13.30;39.30;;;;;;5016810;28;20025;-57
2021/04/26 07:08:33;;;;;;;3.40;2.50;;;12.60;44.10;;;;;;5025329;28;20045;-55
2021/04/26 07:10:58;;;;;;;;;;;12.70;44.30;;;;;;5025845;28;20038;-54
2021/04/26 07:13:24;;;;;;;5.50;0.90;;;12.20;42.90;;;;;;5026183;28;19921;-54
2021/04/26 07:15:49;;;;;;;;;;;11.80;45.40;;;;;;5023182;28;20045;-54
2021/04/26 07:18:15;;;;;;;2.08;1.00;;;11.60;45.50;;;;;;5025577;28;20039;-51
2021/04/26 07:20:40;;;;;;;;;;;11.40;46.80;;;;;;5026441;28;20037;-54
2021/04/26 07:23:06;;;;;;;8.07;4.50;;;11.70;45.90;;;;;;5025809;28;19927;-48
2021/04/26 07:25:31;;;;;;;;;;;11.20;46.20;;;;;;5027949;28;20108;-52
2021/04/26 07:27:57;;;;;;;4.45;2.30;;;10.60;46.60;;;;;;5029628;28;19917;-57
2021/04/26 07:30:23;;;;;;;;;;;10.40;49.10;;;;;;5029476;28;20103;-54
2021/04/26 07:32:49;;;;;;;3.13;1.65;;;10.30;48.40;;;;;;5028686;28;19929;-50
2021/04/26 07:35:14;;;;;;;;;;;10.70;49.40;;;;;;5029981;28;20069;-52
2021/04/26 07:37:41;;;;;;;2.08;1.00;;;11.10;49.50;;;;;;5029736;28;20011;-51
2021/04/26 07:40:08;;;;;;;3.42;1.60;;;10.90;46.30;;;;;;5029016;28;20492;-54
2021/04/26 07:42:34;;;;;;;4.35;1.92;;;11.00;49.30;;;;;;5029409;28;20133;-53
2021/04/26 07:44:59;;;;;;;;;;;10.70;47.10;;;;;;5028662;28;20124;-56
2021/04/26 07:47:25;;;;;;;1.75;0.80;;;10.70;47.90;;;;;;5008805;28;19965;-54
2021/04/26 07:49:51;;;;;;;;;;;11.10;47.90;;;;;;4991892;28;20762;-51
2021/04/26 07:52:16;;;;;;;1.83;0.90;;;11.30;46.50;;;;;;5008623;28;19925;-55
2021/04/26 07:54:42;;;;;;;;;;;12.30;45.50;;;;;;5004481;28;20037;-55
2021/04/26 07:57:08;;;;;;;1.95;0.95;;;13.30;42.00;;;;;;5008473;28;19986;-56
2021/04/26 07:59:34;;;;;;;6.10;3.03;;;14.40;43.60;;;;;;5009736;28;20100;-57
2021/04/26 08:01:59;;;;;;;1.50;0.98;;;15.40;38.60;;;;;;5008378;28;20038;-54
2021/04/26 08:04:25;;;;;;;2.38;0.93;;;15.90;36.40;;;;;;5009130;28;20068;-55
2021/04/26 08:06:51;;;;;;;4.75;3.05;;;16.10;37.50;;;;;;5008208;28;20355;-57
2021/04/26 08:09:16;;;;;;;3.15;1.65;;;17.30;35.80;;;;;;5007617;28;20029;-54
2021/04/26 08:11:42;;;;;;;2.40;1.02;;;18.70;35.30;;;;;;5008897;28;20117;-57
2021/04/26 08:14:08;;;;;;;2.83;1.13;;;19.20;32.70;;;;;;5008940;28;20066;-52
2021/04/26 08:16:33;;;;;;;2.40;0.93;;;19.90;33.50;;;;;;5019679;28;20486;-57
2021/04/26 08:18:59;;;;;;;5.13;1.00;;;19.30;28.60;;;;;;5029192;28;20037;-55
2021/04/26 08:21:25;;;;;;;3.40;1.02;;;19.50;31.30;;;;;;5028945;28;20041;-55
2021/04/26 08:23:50;;;;;;;1.02;0.70;;;20.00;29.70;;;;;;5028857;28;20049;-56
2021/04/26 08:26:16;;;;;;;3.28;1.17;;;20.30;30.20;;;;;;5028452;28;20503;-56
2021/04/26 08:28:42;;;;;;;3.17;0.93;;;20.60;28.80;;;;;;5027649;28;20045;-59
2021/04/26 08:31:08;;;;;;;3.63;0.80;;;20.00;27.50;;;;;;5004037;28;20480;-57
2021/04/26 08:33:39;;;;;;;3.22;0.82;;;18.20;28.70;;;;;;5008056;28;20046;-54
2021/04/26 08:36:06;;;;;;;2.47;0.90;;;17.80;33.50;;;;;;5006564;28;20048;-56
2021/04/26 08:38:32;;;;;;;2.90;0.93;;;18.40;31.20;;;;;;5015698;28;20041;-57
2021/04/26 08:40:58;;;;;;;2.28;1.10;;;17.60;29.90;;;;;;5007899;28;20053;-53
2021/04/26 08:43:23;;;;;;;;;;;16.00;32.00;;;;;;5008806;28;20049;-54
2021/04/26 08:45:49;;;;;;;3.65;0.90;;;14.00;34.90;;;;;;5014992;28;20040;-50
2021/04/26 08:48:15;;;;;;;;;;;12.50;39.00;;;;;;5021711;28;20041;-54
2021/04/26 08:50:41;;;;;;;1.83;1.10;;;11.80;42.30;;;;;;5008122;28;19921;-53
2021/04/26 08:53:07;;;;;;;1.83;1.00;;;11.10;42.30;;;;;;5008326;28;20081;-52
2021/04/26 08:55:32;;;;;;;;;;;10.70;44.90;;;;;;5008401;28;20077;-53
2021/04/26 08:57:58;;;;;;;3.88;1.10;;;10.40;45.70;;;;;;5007816;28;19991;-51
2021/04/26 09:00:23;;;;;;;;;;;10.00;46.10;;;;;;5007269;28;20034;-51
2021/04/26 09:02:56;;;;;;;2.40;1.23;;;9.60;47.60;;;;;;5007999;28;19997;-55
2021/04/26 09:05:28;;;;;;;1.13;0.90;;;9.10;47.80;;;;;;5008150;28;20670;-56
2021/04/26 09:07:56;;;;;;;3.58;1.40;;;8.90;46.80;;;;;;5007984;28;20406;-49
2021/04/26 09:10:39;;;;;;;2.47;1.25;;;9.10;49.20;;;;;;5008624;28;20595;-56
2021/04/26 09:13:22;;;;;;;2.08;1.30;;;8.90;46.20;;;;;;5007564;28;20057;-53
2021/04/26 09:16:03;;;;;;;2.92;1.20;;;8.30;48.40;;;;;;5006787;28;20065;-55
2021/04/26 09:18:55;;;;;;;6.38;1.45;;;8.40;50.40;;;;;;5007386;28;20513;-54
2021/04/26 09:21:23;;;;;;;2.45;1.30;;;8.80;50.00;;;;;;5007704;28;20061;-55
2021/04/26 09:24:23;;;;;;;4.72;1.17;;;8.70;51.90;;;;;;5007287;28;20501;-56
2021/04/26 09:26:51;;;;;;;4.20;1.40;;;8.50;48.60;;;;;;5008057;28;20092;-53
2021/04/26 09:29:27;;;;;;;3.38;1.10;;;8.60;49.70;;;;;;4989902;28;20154;-54
2021/04/26 09:32:10;;;;;;;;;;;8.80;48.70;;;;;;5007749;28;20041;-51
2021/04/26 09:34:41;;;;;;;7.32;1.30;;;8.60;49.60;;;;;;5005053;28;20312;-55
2021/04/26 09:37:19;;;;;;;3.33;1.38;;;8.60;47.40;;;;;;5001631;28;20064;-55
2021/04/26 09:40:05;;;;;;;6.20;1.20;;;8.80;48.50;;;;;;5006778;28;20077;-54
2021/04/26 09:42:48;;;;;;;4.00;1.20;;;9.00;48.50;;;;;;5007114;28;20144;-53
2021/04/26 09:45:20;;;;;;;2.70;0.90;;;9.50;49.70;;;;;;5005095;28;20052;-56
2021/04/26 09:47:45;;;;;;;4.30;1.20;;;9.70;51.30;;;;;;4995579;28;20502;-56
2021/04/26 09:50:11;;;;;;;;;;;9.60;47.50;;;;;;5006403;28;20056;-53
2021/04/26 09:52:37;;;;;;;2.75;1.55;;;9.30;49.00;;;;;;5007591;28;19918;-54
2021/04/26 09:55:02;;;;;;;;;;;9.00;46.90;;;;;;5007929;28;20096;-58
2021/04/26 09:57:28;;;;;;;3.13;1.10;;;8.80;48.20;;;;;;5007486;28;20004;-56
2021/04/26 09:59:55;;;;;;;;;;;9.00;51.00;;;;;;5007177;28;20064;-54
2021/04/26 10:02:21;;;;;;;2.10;0.95;;;9.10;47.40;;;;;;5006862;28;19972;-50
2021/04/26 10:04:47;;;;;;;3.53;1.20;;;8.90;48.70;;;;;;5007200;28;20045;-50
2021/04/26 10:07:12;;;;;;;;;;;9.10;47.30;;;;;;5007499;28;20029;-50
2021/04/26 10:09:41;;;;;;;7.63;1.20;;;9.20;46.80;;;;;;5006630;28;19928;-56
2021/04/26 10:12:09;;;;;;;4.32;1.10;;;9.30;48.30;;;;;;5007031;28;20085;-51
2021/04/26 10:14:39;;;;;;;4.22;1.05;;;9.10;47.10;;;;;;5006325;28;20141;-53
2021/04/26 10:17:11;;;;;;;1.75;1.10;;;8.60;46.10;;;;;;5001387;28;20045;-51
2021/04/26 10:19:37;;;;;;;2.47;1.00;;;8.50;48.50;;;;;;4987221;28;20070;-50
2021/04/26 10:22:05;;;;;;;7.63;1.60;;;8.60;47.90;;;;;;4996340;28;20042;-54
2021/04/26 10:24:33;;;;;;;6.93;1.17;;;8.80;46.70;;;;;;4996029;28;20109;-50
2021/04/26 10:27:05;;;;;;;3.15;1.10;;;9.00;48.50;;;;;;5006650;28;20480;-51
2021/04/26 10:29:34;;;;;;;6.30;1.40;;;9.00;49.10;;;;;;5006443;28;20102;-53
2021/04/26 10:32:04;;;;;;;1.90;1.20;;;9.30;53.50;;;;;;5006552;28;20065;-56
2021/04/26 10:34:42;;;;;;;2.88;1.45;;;9.80;49.90;;;;;;5005355;28;20056;-50
2021/04/26 10:37:17;;;;;;;1.98;1.30;;;9.90;51.10;;;;;;5006401;28;20073;-53
2021/04/26 10:40:04;;;;;;;3.45;1.25;;;9.80;49.10;;;;;;5006119;28;20048;-52
2021/04/26 10:42:39;;;;;;;4.30;1.65;;;9.30;46.40;;;;;;4986960;28;20042;-51
2021/04/26 10:45:13;;;;;;;4.15;1.20;;;9.30;48.90;;;;;;4991199;28;20030;-50
2021/04/26 10:47:40;;;;;;;4.03;1.17;;;9.30;47.50;;;;;;4997026;28;20042;-52
2021/04/26 10:50:05;;;;;;;1.42;1.02;;;9.10;47.30;;;;;;5001959;28;20046;-52
2021/04/26 10:52:31;;;;;;;;;;;9.30;49.00;;;;;;5006249;28;20144;-52
2021/04/26 10:54:58;;;;;;;3.67;1.23;;;9.30;47.40;;;;;;5006085;28;19921;-54
2021/04/26 10:57:42;;;;;;;3.67;1.38;;;9.50;48.30;;;;;;4992255;28;20112;-56
2021/04/26 11:00:32;;;;;;;3.72;1.05;;;9.10;46.40;;;;;;4986639;28;20486;-52
2021/04/26 11:03:09;;;;;;;3.88;1.10;;;9.20;46.60;;;;;;5005644;28;20042;-55
2021/04/26 11:05:43;;;;;;;1.83;1.20;;;9.10;46.40;;;;;;5024334;28;20581;-54
2021/04/26 11:08:30;;;;;;;4.57;1.50;;;9.50;48.50;;;;;;5010757;28;20037;-52
2021/04/26 11:10:57;;;;;;;;;;;9.90;47.60;;;;;;5017696;28;20050;-56
2021/04/26 11:13:32;;;;;;;3.45;1.70;;;9.90;46.30;;;;;;5025065;28;19928;-54
2021/04/26 11:16:12;;;;;;;4.95;2.75;;;9.70;46.10;;;;;;5029291;28;20045;-51
2021/04/26 11:18:42;;;;;;;3.60;1.92;;;9.60;46.70;;;;;;5031353;28;20095;-55
2021/04/26 11:21:09;;;;;;;3.40;1.23;;;9.70;46.50;;;;;;5035310;28;20047;-54
2021/04/26 11:23:48;;;;;;;4.13;1.50;;;9.60;47.90;;;;;;5033086;28;20049;-55
2021/04/26 11:26:16;;;;;;;10.07;6.38;;;9.60;45.60;;;;;;5023764;28;20712;-51
2021/04/26 11:29:11;;;;;;;5.32;1.50;;;9.70;46.80;;;;;;5021112;28;20052;-54
2021/04/26 11:31:43;;;;;;;3.30;1.60;;;9.70;47.90;;;;;;5004368;28;20132;-56
2021/04/26 11:34:47;;;;;;;3.60;2.00;;;9.40;46.40;;;;;;5027806;28;20586;-56
2021/04/26 11:37:24;;;;;;;8.60;1.75;;;9.40;48.00;;;;;;5030664;28;20730;-56
2021/04/26 11:39:53;;;;;;;3.05;1.88;;;9.70;48.90;;;;;;5039370;28;20045;-55
2021/04/26 11:42:24;;;;;;;6.05;2.47;;;10.00;49.40;;;;;;5041665;28;20048;-57
2021/04/26 11:44:50;;;;;;;2.95;1.67;;;10.00;46.70;;;;;;5024703;28;20111;-55
2021/04/26 11:47:17;;;;;;;4.43;2.30;;;10.00;44.70;;;;;;5000310;28;20556;-53
2021/04/26 11:49:45;;;;;;;3.53;1.70;;;10.10;44.30;;;;;;4982513;28;20054;-54
2021/04/26 11:52:22;;;;;;;3.08;1.20;;;10.40;45.80;;;;;;5000659;28;20045;-53
2021/04/26 11:54:51;;;;;;;1.98;1.20;;;9.90;45.20;;;;;;4991642;28;20050;-55
2021/04/26 11:57:21;;;;;;;8.07;1.50;;;10.00;46.30;;;;;;4990168;28;20053;-57
2021/04/26 11:59:59;;;;;;;4.30;1.90;;;10.10;47.20;;;;;;5005016;28;20041;-56
2021/04/26 12:02:25;;;;;;;5.53;2.10;;;10.30;48.00;;;;;;5028861;28;20049;-55
2021/04/26 12:04:51;;;;;;;5.93;1.60;;;10.50;46.70;;;;;;5044405;28;20103;-54
2021/04/26 12:07:17;;;;;;;2.85;1.40;;;10.70;47.60;;;;;;5045869;28;20053;-55
2021/04/26 12:09:47;;;;;;;;;;;10.50;47.60;;;;;;5045443;28;20041;-52
2021/04/26 12:12:21;;;;;;;1.75;1.30;;;10.20;49.00;;;;;;5048298;28;20335;-53
2021/04/26 12:14:59;;;;;;;2.45;1.27;;;9.80;47.50;;;;;;5045908;28;20122;-53
2021/04/26 12:17:27;;;;;;;1.60;1.00;;;9.80;49.60;;;;;;5027121;28;20037;-55
2021/04/26 12:19:54;;;;;;;10.68;1.27;;;9.60;47.20;;;;;;5029038;28;20060;-57
2021/04/26 12:22:21;;;;;;;3.40;1.58;;;9.80;47.30;;;;;;5028387;28;20045;-55
2021/04/26 12:24:52;;;;;;;3.80;1.45;;;10.00;47.40;;;;;;5028107;28;20049;-53
2021/04/26 12:27:22;;;;;;;2.50;1.42;;;10.10;48.20;;;;;;5029031;28;20048;-56
2021/04/26 12:29:47;;;;;;;3.65;1.77;;;10.10;45.90;;;;;;5028695;28;20049;-57
2021/04/26 12:32:14;;;;;;;;;;;10.30;45.90;;;;;;5011021;28;20045;-54
2021/04/26 12:34:58;;;;;;;2.73;1.33;;;10.20;46.40;;;;;;5008509;28;20020;-56
2021/04/26 12:37:46;;;;;;;6.30;1.50;;;10.10;47.20;;;;;;5007969;28;20520;-58
2021/04/26 12:40:25;;;;;;;2.63;1.73;;;10.10;47.30;;;;;;5009331;28;20038;-54
2021/04/26 12:43:01;;;;;;;3.65;1.20;;;10.00;45.50;;;;;;5008436;28;20069;-50
2021/04/26 12:45:33;;;;;;;4.70;1.40;;;9.90;46.20;;;;;;5007394;28;20756;-55
2021/04/26 12:48:04;;;;;;;6.63;1.35;;;9.80;44.80;;;;;;5000987;28;20565;-57
2021/04/26 12:50:31;;;;;;;6.38;1.85;;;9.90;44.40;;;;;;4995954;28;20046;-51
2021/04/26 12:53:21;;;;;;;1.90;1.27;;;10.20;44.80;;;;;;5006445;28;20078;-54
2021/04/26 12:55:55;;;;;;;4.10;1.88;;;10.30;43.60;;;;;;5006108;28;20132;-58
2021/04/26 12:58:35;;;;;;;4.03;1.52;;;10.40;45.40;;;;;;5007851;28;20037;-58
2021/04/26 13:01:14;;;;;;;4.40;1.80;;;10.50;47.10;;;;;;5008537;28;20037;-55
2021/04/26 13:03:50;;;;;;;3.17;1.60;;;10.50;49.00;;;;;;4990116;28;20113;-57
2021/04/26 13:06:17;;;;;;;5.18;1.70;;;10.40;47.10;;;;;;4987818;28;20053;-60
2021/04/26 13:08:48;;;;;;;2.90;1.70;;;10.40;45.80;;;;;;4988200;28;20047;-59
2021/04/26 13:11:30;;;;;;;3.63;1.90;;;10.40;46.20;;;;;;5006466;28;20045;-53
2021/04/26 13:14:04;;;;;;;3.08;1.67;;;10.40;47.30;;;;;;5008059;28;20068;-55
2021/04/26 13:16:35;;;;;;;4.68;1.70;;;10.50;51.50;;;;;;5006598;28;20037;-49